sensor_id;sensor_type;location;lat;lon;timestamp;P1;durP1;ratioP1;P2;durP2;ratioP2
19257;SDS011;9763;48.780;9.212;2023-02-28T00:02:37;1.60;;;1.40;;
19257;SDS011;9763;48.780;9.212;2023-02-28T00:06:03;4.27;;;1.60;;
19257;SDS011;9763;48.780;9.212;2023-02-28T00:09:28;2.60;;;1.60;;
19257;SDS011;9763;48.780;9.212;2023-02-28T00:12:52;2.47;;;1.40;;
19257;SDS011;9763;48.780;9.212;2023-02-28T00:16:22;2.20;;;1.63;;
19257;SDS011;9763;48.780;9.212;2023-02-28T00:19:46;2.17;;;1.50;;
19257;SDS011;9763;48.780;9.212;2023-02-28T00:23:10;1.97;;;1.60;;
19257;SDS011;9763;48.780;9.212;2023-02-28T00:26:34;3.67;;;2.00;;
19257;SDS011;9763;48.780;9.212;2023-02-28T00:29:58;2.00;;;1.67;;
19257;SDS011;9763;48.780;9.212;2023-02-28T00:33:25;1.90;;;1.50;;
19257;SDS011;9763;48.780;9.212;2023-02-28T00:36:50;1.93;;;1.30;;
19257;SDS011;9763;48.780;9.212;2023-02-28T00:40:13;1.77;;;1.63;;
19257;SDS011;9763;48.780;9.212;2023-02-28T00:43:38;3.27;;;1.50;;
19257;SDS011;9763;48.780;9.212;2023-02-28T00:47:02;1.80;;;1.40;;
19257;SDS011;9763;48.780;9.212;2023-02-28T00:50:28;2.40;;;1.60;;
19257;SDS011;9763;48.780;9.212;2023-02-28T00:53:52;1.77;;;1.40;;
19257;SDS011;9763;48.780;9.212;2023-02-28T00:57:18;1.43;;;1.20;;
19257;SDS011;9763;48.780;9.212;2023-02-28T01:00:42;1.57;;;1.20;;
19257;SDS011;9763;48.780;9.212;2023-02-28T01:04:12;1.40;;;1.30;;
19257;SDS011;9763;48.780;9.212;2023-02-28T01:07:38;1.30;;;1.20;;
19257;SDS011;9763;48.780;9.212;2023-02-28T01:11:06;2.13;;;1.43;;
19257;SDS011;9763;48.780;9.212;2023-02-28T01:14:34;2.17;;;1.53;;
19257;SDS011;9763;48.780;9.212;2023-02-28T01:17:58;2.20;;;1.47;;
19257;SDS011;9763;48.780;9.212;2023-02-28T01:21:22;1.60;;;1.50;;
19257;SDS011;9763;48.780;9.212;2023-02-28T01:24:47;1.63;;;1.40;;
19257;SDS011;9763;48.780;9.212;2023-02-28T01:28:10;1.63;;;1.30;;
19257;SDS011;9763;48.780;9.212;2023-02-28T01:31:34;2.20;;;1.47;;
19257;SDS011;9763;48.780;9.212;2023-02-28T01:34:58;2.63;;;1.33;;
19257;SDS011;9763;48.780;9.212;2023-02-28T01:38:22;1.30;;;1.20;;
19257;SDS011;9763;48.780;9.212;2023-02-28T01:41:49;1.50;;;1.30;;
19257;SDS011;9763;48.780;9.212;2023-02-28T01:45:21;1.73;;;1.40;;
19257;SDS011;9763;48.780;9.212;2023-02-28T01:48:50;1.93;;;1.50;;
19257;SDS011;9763;48.780;9.212;2023-02-28T01:52:21;1.60;;;1.50;;
19257;SDS011;9763;48.780;9.212;2023-02-28T01:55:48;1.63;;;1.47;;
19257;SDS011;9763;48.780;9.212;2023-02-28T01:59:19;2.73;;;1.73;;
19257;SDS011;9763;48.780;9.212;2023-02-28T02:02:50;2.93;;;1.50;;
19257;SDS011;9763;48.780;9.212;2023-02-28T02:06:18;1.90;;;1.40;;
19257;SDS011;9763;48.780;9.212;2023-02-28T02:09:42;1.80;;;1.40;;
19257;SDS011;9763;48.780;9.212;2023-02-28T02:13:13;1.60;;;1.50;;
19257;SDS011;9763;48.780;9.212;2023-02-28T02:17:10;2.27;;;1.73;;
19257;SDS011;9763;48.780;9.212;2023-02-28T02:20:47;2.20;;;1.83;;
19257;SDS011;9763;48.780;9.212;2023-02-28T02:25:11;2.03;;;1.50;;
19257;SDS011;9763;48.780;9.212;2023-02-28T02:28:55;3.40;;;1.87;;
19257;SDS011;9763;48.780;9.212;2023-02-28T02:33:04;2.63;;;1.60;;
19257;SDS011;9763;48.780;9.212;2023-02-28T02:36:48;1.97;;;1.50;;
19257;SDS011;9763;48.780;9.212;2023-02-28T02:40:22;2.30;;;2.10;;
19257;SDS011;9763;48.780;9.212;2023-02-28T02:43:52;2.33;;;1.93;;
19257;SDS011;9763;48.780;9.212;2023-02-28T02:47:26;1.53;;;1.33;;
19257;SDS011;9763;48.780;9.212;2023-02-28T02:50:55;2.17;;;1.97;;
19257;SDS011;9763;48.780;9.212;2023-02-28T02:54:24;2.10;;;1.80;;
19257;SDS011;9763;48.780;9.212;2023-02-28T02:57:53;2.53;;;2.33;;
19257;SDS011;9763;48.780;9.212;2023-02-28T03:01:24;3.57;;;2.40;;
19257;SDS011;9763;48.780;9.212;2023-02-28T03:04:53;2.90;;;1.90;;
19257;SDS011;9763;48.780;9.212;2023-02-28T03:08:24;2.57;;;2.00;;
19257;SDS011;9763;48.780;9.212;2023-02-28T03:11:49;2.83;;;1.70;;
19257;SDS011;9763;48.780;9.212;2023-02-28T03:15:16;2.43;;;2.13;;
19257;SDS011;9763;48.780;9.212;2023-02-28T03:18:51;2.20;;;2.00;;
19257;SDS011;9763;48.780;9.212;2023-02-28T03:26:21;2.17;;;1.97;;
19257;SDS011;9763;48.780;9.212;2023-02-28T03:29:50;1.87;;;1.73;;
19257;SDS011;9763;48.780;9.212;2023-02-28T03:33:23;2.43;;;2.00;;
19257;SDS011;9763;48.780;9.212;2023-02-28T03:36:53;2.93;;;2.30;;
19257;SDS011;9763;48.780;9.212;2023-02-28T03:40:23;2.47;;;2.27;;
19257;SDS011;9763;48.780;9.212;2023-02-28T03:43:53;2.43;;;2.23;;
19257;SDS011;9763;48.780;9.212;2023-02-28T03:47:25;2.40;;;2.20;;
19257;SDS011;9763;48.780;9.212;2023-02-28T03:50:57;3.00;;;2.23;;
19257;SDS011;9763;48.780;9.212;2023-02-28T03:54:27;1.93;;;1.73;;
19257;SDS011;9763;48.780;9.212;2023-02-28T03:57:58;2.13;;;1.93;;
19257;SDS011;9763;48.780;9.212;2023-02-28T04:01:31;2.13;;;1.90;;
19257;SDS011;9763;48.780;9.212;2023-02-28T04:05:04;2.50;;;2.10;;
19257;SDS011;9763;48.780;9.212;2023-02-28T04:08:28;2.23;;;1.97;;
19257;SDS011;9763;48.780;9.212;2023-02-28T04:11:52;1.97;;;1.83;;
19257;SDS011;9763;48.780;9.212;2023-02-28T04:15:17;3.07;;;2.07;;
19257;SDS011;9763;48.780;9.212;2023-02-28T04:18:44;5.47;;;3.00;;
19257;SDS011;9763;48.780;9.212;2023-02-28T04:22:09;2.93;;;2.10;;
19257;SDS011;9763;48.780;9.212;2023-02-28T04:25:33;2.70;;;1.83;;
19257;SDS011;9763;48.780;9.212;2023-02-28T04:28:57;2.60;;;2.10;;
19257;SDS011;9763;48.780;9.212;2023-02-28T04:32:21;3.03;;;2.67;;
19257;SDS011;9763;48.780;9.212;2023-02-28T04:35:45;2.53;;;2.23;;
19257;SDS011;9763;48.780;9.212;2023-02-28T04:39:10;1.90;;;1.73;;
19257;SDS011;9763;48.780;9.212;2023-02-28T04:42:33;2.83;;;2.43;;
19257;SDS011;9763;48.780;9.212;2023-02-28T04:45:58;5.80;;;2.20;;
19257;SDS011;9763;48.780;9.212;2023-02-28T04:49:26;2.87;;;2.47;;
19257;SDS011;9763;48.780;9.212;2023-02-28T04:52:50;2.70;;;2.40;;
19257;SDS011;9763;48.780;9.212;2023-02-28T04:56:15;3.07;;;2.47;;
19257;SDS011;9763;48.780;9.212;2023-02-28T04:59:40;3.67;;;3.00;;
19257;SDS011;9763;48.780;9.212;2023-02-28T05:03:04;2.70;;;2.50;;
19257;SDS011;9763;48.780;9.212;2023-02-28T05:06:28;2.43;;;2.23;;
19257;SDS011;9763;48.780;9.212;2023-02-28T05:09:54;4.60;;;2.43;;
19257;SDS011;9763;48.780;9.212;2023-02-28T05:13:19;2.53;;;2.10;;
19257;SDS011;9763;48.780;9.212;2023-02-28T05:16:43;3.10;;;2.83;;
19257;SDS011;9763;48.780;9.212;2023-02-28T05:20:07;2.80;;;2.47;;
19257;SDS011;9763;48.780;9.212;2023-02-28T05:23:36;2.93;;;2.70;;
19257;SDS011;9763;48.780;9.212;2023-02-28T05:27:00;3.10;;;2.80;;
19257;SDS011;9763;48.780;9.212;2023-02-28T05:30:26;3.00;;;2.63;;
19257;SDS011;9763;48.780;9.212;2023-02-28T05:33:50;3.13;;;2.87;;
19257;SDS011;9763;48.780;9.212;2023-02-28T05:37:14;2.67;;;2.40;;
19257;SDS011;9763;48.780;9.212;2023-02-28T05:40:38;3.33;;;3.00;;
19257;SDS011;9763;48.780;9.212;2023-02-28T05:44:02;4.03;;;2.90;;
19257;SDS011;9763;48.780;9.212;2023-02-28T05:47:27;3.00;;;2.70;;
19257;SDS011;9763;48.780;9.212;2023-02-28T05:50:51;3.10;;;2.80;;
19257;SDS011;9763;48.780;9.212;2023-02-28T05:54:15;4.10;;;3.33;;
19257;SDS011;9763;48.780;9.212;2023-02-28T05:57:39;3.47;;;3.17;;
19257;SDS011;9763;48.780;9.212;2023-02-28T06:04:48;2.77;;;2.57;;
19257;SDS011;9763;48.780;9.212;2023-02-28T06:08:12;2.70;;;2.43;;
19257;SDS011;9763;48.780;9.212;2023-02-28T06:11:36;3.30;;;2.70;;
19257;SDS011;9763;48.780;9.212;2023-02-28T06:15:01;3.63;;;2.90;;
19257;SDS011;9763;48.780;9.212;2023-02-28T06:18:25;4.73;;;3.03;;
19257;SDS011;9763;48.780;9.212;2023-02-28T06:21:50;3.77;;;3.17;;
19257;SDS011;9763;48.780;9.212;2023-02-28T06:25:15;3.80;;;3.07;;
19257;SDS011;9763;48.780;9.212;2023-02-28T06:28:40;2.83;;;2.53;;
19257;SDS011;9763;48.780;9.212;2023-02-28T06:32:04;3.70;;;3.40;;
19257;SDS011;9763;48.780;9.212;2023-02-28T06:35:28;4.60;;;3.23;;
19257;SDS011;9763;48.780;9.212;2023-02-28T06:38:53;4.50;;;2.90;;
19257;SDS011;9763;48.780;9.212;2023-02-28T06:42:17;3.60;;;3.17;;
19257;SDS011;9763;48.780;9.212;2023-02-28T06:45:42;4.67;;;3.53;;
19257;SDS011;9763;48.780;9.212;2023-02-28T06:49:06;5.40;;;3.73;;
19257;SDS011;9763;48.780;9.212;2023-02-28T06:52:31;3.87;;;3.50;;
19257;SDS011;9763;48.780;9.212;2023-02-28T06:55:59;4.53;;;3.77;;
19257;SDS011;9763;48.780;9.212;2023-02-28T06:59:27;3.23;;;2.90;;
19257;SDS011;9763;48.780;9.212;2023-02-28T07:02:50;4.03;;;3.23;;
19257;SDS011;9763;48.780;9.212;2023-02-28T07:06:15;4.13;;;3.70;;
19257;SDS011;9763;48.780;9.212;2023-02-28T07:09:39;4.97;;;3.90;;
19257;SDS011;9763;48.780;9.212;2023-02-28T07:13:04;3.20;;;2.90;;
19257;SDS011;9763;48.780;9.212;2023-02-28T07:16:30;4.73;;;3.90;;
19257;SDS011;9763;48.780;9.212;2023-02-28T07:19:54;4.60;;;4.10;;
19257;SDS011;9763;48.780;9.212;2023-02-28T07:23:18;4.70;;;4.27;;
19257;SDS011;9763;48.780;9.212;2023-02-28T07:26:42;4.73;;;4.23;;
19257;SDS011;9763;48.780;9.212;2023-02-28T07:30:08;4.33;;;3.80;;
19257;SDS011;9763;48.780;9.212;2023-02-28T07:33:33;5.83;;;4.90;;
19257;SDS011;9763;48.780;9.212;2023-02-28T07:36:57;5.10;;;4.10;;
19257;SDS011;9763;48.780;9.212;2023-02-28T07:40:21;7.00;;;5.30;;
19257;SDS011;9763;48.780;9.212;2023-02-28T07:43:46;4.47;;;3.93;;
19257;SDS011;9763;48.780;9.212;2023-02-28T07:47:11;6.70;;;5.50;;
19257;SDS011;9763;48.780;9.212;2023-02-28T07:50:35;5.10;;;4.33;;
19257;SDS011;9763;48.780;9.212;2023-02-28T07:53:59;4.90;;;3.80;;
19257;SDS011;9763;48.780;9.212;2023-02-28T07:57:23;4.67;;;4.20;;
19257;SDS011;9763;48.780;9.212;2023-02-28T08:00:47;4.30;;;3.90;;
19257;SDS011;9763;48.780;9.212;2023-02-28T08:04:12;6.20;;;4.93;;
19257;SDS011;9763;48.780;9.212;2023-02-28T08:07:35;4.93;;;4.43;;
19257;SDS011;9763;48.780;9.212;2023-02-28T08:11:00;5.30;;;4.20;;
19257;SDS011;9763;48.780;9.212;2023-02-28T08:14:25;7.50;;;5.20;;
19257;SDS011;9763;48.780;9.212;2023-02-28T08:17:49;4.00;;;3.60;;
19257;SDS011;9763;48.780;9.212;2023-02-28T08:21:14;6.20;;;5.17;;
19257;SDS011;9763;48.780;9.212;2023-02-28T08:24:37;6.00;;;5.40;;
19257;SDS011;9763;48.780;9.212;2023-02-28T08:28:03;6.70;;;5.00;;
19257;SDS011;9763;48.780;9.212;2023-02-28T08:31:27;5.87;;;5.17;;
19257;SDS011;9763;48.780;9.212;2023-02-28T08:34:51;6.00;;;5.30;;
19257;SDS011;9763;48.780;9.212;2023-02-28T08:38:17;5.70;;;4.97;;
19257;SDS011;9763;48.780;9.212;2023-02-28T08:41:41;4.87;;;4.37;;
19257;SDS011;9763;48.780;9.212;2023-02-28T08:45:06;6.50;;;4.03;;
19257;SDS011;9763;48.780;9.212;2023-02-28T08:48:31;5.80;;;5.00;;
19257;SDS011;9763;48.780;9.212;2023-02-28T08:51:59;5.37;;;4.90;;
19257;SDS011;9763;48.780;9.212;2023-02-28T08:55:25;5.23;;;4.70;;
19257;SDS011;9763;48.780;9.212;2023-02-28T08:58:49;6.03;;;5.40;;
19257;SDS011;9763;48.780;9.212;2023-02-28T09:02:13;6.23;;;5.60;;
19257;SDS011;9763;48.780;9.212;2023-02-28T09:05:38;5.80;;;4.80;;
19257;SDS011;9763;48.780;9.212;2023-02-28T09:09:02;4.83;;;4.43;;
19257;SDS011;9763;48.780;9.212;2023-02-28T09:12:31;4.27;;;3.87;;
19257;SDS011;9763;48.780;9.212;2023-02-28T09:15:58;5.93;;;4.80;;
19257;SDS011;9763;48.780;9.212;2023-02-28T09:19:23;4.80;;;4.23;;
19257;SDS011;9763;48.780;9.212;2023-02-28T09:22:47;6.47;;;5.03;;
19257;SDS011;9763;48.780;9.212;2023-02-28T09:26:13;5.27;;;4.70;;
19257;SDS011;9763;48.780;9.212;2023-02-28T09:29:39;9.20;;;4.60;;
19257;SDS011;9763;48.780;9.212;2023-02-28T09:33:03;6.83;;;5.33;;
19257;SDS011;9763;48.780;9.212;2023-02-28T09:36:27;5.30;;;4.80;;
19257;SDS011;9763;48.780;9.212;2023-02-28T09:40:05;5.20;;;4.70;;
19257;SDS011;9763;48.780;9.212;2023-02-28T09:43:33;4.90;;;4.33;;
19257;SDS011;9763;48.780;9.212;2023-02-28T09:47:07;3.90;;;3.53;;
19257;SDS011;9763;48.780;9.212;2023-02-28T09:50:38;6.03;;;4.63;;
19257;SDS011;9763;48.780;9.212;2023-02-28T09:54:09;6.37;;;5.63;;
19257;SDS011;9763;48.780;9.212;2023-02-28T09:57:40;4.10;;;3.70;;
19257;SDS011;9763;48.780;9.212;2023-02-28T10:01:06;5.53;;;4.80;;
19257;SDS011;9763;48.780;9.212;2023-02-28T10:04:46;5.40;;;4.10;;
19257;SDS011;9763;48.780;9.212;2023-02-28T10:08:17;5.60;;;5.10;;
19257;SDS011;9763;48.780;9.212;2023-02-28T10:11:48;8.53;;;5.13;;
19257;SDS011;9763;48.780;9.212;2023-02-28T10:15:17;7.40;;;5.77;;
19257;SDS011;9763;48.780;9.212;2023-02-28T10:18:47;6.67;;;5.30;;
19257;SDS011;9763;48.780;9.212;2023-02-28T10:22:20;6.47;;;4.60;;
19257;SDS011;9763;48.780;9.212;2023-02-28T10:25:52;6.03;;;5.13;;
19257;SDS011;9763;48.780;9.212;2023-02-28T10:29:21;5.67;;;4.93;;
19257;SDS011;9763;48.780;9.212;2023-02-28T10:32:47;6.50;;;4.60;;
19257;SDS011;9763;48.780;9.212;2023-02-28T10:36:16;7.77;;;4.73;;
19257;SDS011;9763;48.780;9.212;2023-02-28T10:39:45;5.30;;;4.80;;
19257;SDS011;9763;48.780;9.212;2023-02-28T10:43:18;4.60;;;4.13;;
19257;SDS011;9763;48.780;9.212;2023-02-28T10:46:45;5.00;;;4.00;;
19257;SDS011;9763;48.780;9.212;2023-02-28T10:50:25;4.77;;;3.50;;
19257;SDS011;9763;48.780;9.212;2023-02-28T10:53:55;3.90;;;3.50;;
19257;SDS011;9763;48.780;9.212;2023-02-28T10:57:23;4.83;;;4.43;;
19257;SDS011;9763;48.780;9.212;2023-02-28T11:00:48;5.63;;;4.80;;
19257;SDS011;9763;48.780;9.212;2023-02-28T11:04:18;5.13;;;4.60;;
19257;SDS011;9763;48.780;9.212;2023-02-28T11:07:59;4.97;;;4.47;;
19257;SDS011;9763;48.780;9.212;2023-02-28T11:11:41;4.37;;;4.03;;
19257;SDS011;9763;48.780;9.212;2023-02-28T11:15:18;5.43;;;4.53;;
19257;SDS011;9763;48.780;9.212;2023-02-28T11:18:48;4.33;;;3.93;;
19257;SDS011;9763;48.780;9.212;2023-02-28T11:22:16;3.67;;;3.37;;
19257;SDS011;9763;48.780;9.212;2023-02-28T11:25:46;5.00;;;4.43;;
19257;SDS011;9763;48.780;9.212;2023-02-28T11:29:19;4.80;;;4.30;;
19257;SDS011;9763;48.780;9.212;2023-02-28T11:32:49;4.47;;;4.13;;
19257;SDS011;9763;48.780;9.212;2023-02-28T11:36:14;5.00;;;4.60;;
19257;SDS011;9763;48.780;9.212;2023-02-28T11:39:42;4.80;;;4.30;;
19257;SDS011;9763;48.780;9.212;2023-02-28T11:43:09;5.13;;;4.63;;
19257;SDS011;9763;48.780;9.212;2023-02-28T11:46:50;4.13;;;3.73;;
19257;SDS011;9763;48.780;9.212;2023-02-28T11:50:31;5.00;;;3.53;;
19257;SDS011;9763;48.780;9.212;2023-02-28T11:54:24;4.23;;;3.70;;
19257;SDS011;9763;48.780;9.212;2023-02-28T11:58:21;4.13;;;3.80;;
19257;SDS011;9763;48.780;9.212;2023-02-28T12:06:05;6.80;;;4.90;;
19257;SDS011;9763;48.780;9.212;2023-02-28T12:09:47;3.57;;;3.27;;
19257;SDS011;9763;48.780;9.212;2023-02-28T12:13:28;4.63;;;4.17;;
19257;SDS011;9763;48.780;9.212;2023-02-28T12:17:04;4.00;;;3.70;;
19257;SDS011;9763;48.780;9.212;2023-02-28T12:20:45;4.43;;;3.93;;
19257;SDS011;9763;48.780;9.212;2023-02-28T12:24:25;4.23;;;3.83;;
19257;SDS011;9763;48.780;9.212;2023-02-28T12:28:08;4.00;;;3.70;;
19257;SDS011;9763;48.780;9.212;2023-02-28T12:31:37;4.17;;;3.77;;
19257;SDS011;9763;48.780;9.212;2023-02-28T12:35:12;4.47;;;4.10;;
19257;SDS011;9763;48.780;9.212;2023-02-28T12:38:41;5.87;;;5.27;;
19257;SDS011;9763;48.780;9.212;2023-02-28T12:42:13;5.43;;;5.00;;
19257;SDS011;9763;48.780;9.212;2023-02-28T12:45:47;6.47;;;5.70;;
19257;SDS011;9763;48.780;9.212;2023-02-28T12:49:17;5.33;;;4.67;;
19257;SDS011;9763;48.780;9.212;2023-02-28T12:52:48;4.60;;;4.17;;
19257;SDS011;9763;48.780;9.212;2023-02-28T12:56:24;4.87;;;4.47;;
19257;SDS011;9763;48.780;9.212;2023-02-28T13:00:03;4.77;;;4.30;;
19257;SDS011;9763;48.780;9.212;2023-02-28T13:03:46;5.47;;;4.97;;
19257;SDS011;9763;48.780;9.212;2023-02-28T13:07:56;5.30;;;4.80;;
19257;SDS011;9763;48.780;9.212;2023-02-28T13:11:53;4.80;;;4.40;;
19257;SDS011;9763;48.780;9.212;2023-02-28T13:15:21;5.37;;;4.70;;
19257;SDS011;9763;48.780;9.212;2023-02-28T13:18:50;5.40;;;4.90;;
19257;SDS011;9763;48.780;9.212;2023-02-28T13:22:18;5.00;;;4.33;;
19257;SDS011;9763;48.780;9.212;2023-02-28T13:25:59;5.10;;;4.27;;
19257;SDS011;9763;48.780;9.212;2023-02-28T13:29:27;4.90;;;3.90;;
19257;SDS011;9763;48.780;9.212;2023-02-28T13:36:49;6.33;;;3.03;;
19257;SDS011;9763;48.780;9.212;2023-02-28T13:44:00;4.80;;;4.33;;
19257;SDS011;9763;48.780;9.212;2023-02-28T13:47:28;3.53;;;3.13;;
19257;SDS011;9763;48.780;9.212;2023-02-28T13:50:56;4.00;;;3.23;;
19257;SDS011;9763;48.780;9.212;2023-02-28T13:54:24;4.10;;;3.60;;
19257;SDS011;9763;48.780;9.212;2023-02-28T13:58:12;3.93;;;3.63;;
19257;SDS011;9763;48.780;9.212;2023-02-28T14:02:11;4.57;;;4.17;;
19257;SDS011;9763;48.780;9.212;2023-02-28T14:06:14;3.10;;;2.87;;
19257;SDS011;9763;48.780;9.212;2023-02-28T14:09:49;4.87;;;4.17;;
19257;SDS011;9763;48.780;9.212;2023-02-28T14:13:39;5.87;;;4.60;;
19257;SDS011;9763;48.780;9.212;2023-02-28T14:17:14;5.27;;;4.70;;
19257;SDS011;9763;48.780;9.212;2023-02-28T14:20:40;5.10;;;4.60;;
19257;SDS011;9763;48.780;9.212;2023-02-28T14:24:30;5.13;;;4.00;;
19257;SDS011;9763;48.780;9.212;2023-02-28T14:28:24;3.70;;;3.40;;
19257;SDS011;9763;48.780;9.212;2023-02-28T14:32:10;3.17;;;2.70;;
19257;SDS011;9763;48.780;9.212;2023-02-28T14:35:50;3.93;;;3.03;;
19257;SDS011;9763;48.780;9.212;2023-02-28T14:39:25;3.80;;;3.50;;
19257;SDS011;9763;48.780;9.212;2023-02-28T14:42:59;3.53;;;3.13;;
19257;SDS011;9763;48.780;9.212;2023-02-28T14:46:25;3.43;;;3.00;;
19257;SDS011;9763;48.780;9.212;2023-02-28T14:49:57;4.10;;;3.80;;
19257;SDS011;9763;48.780;9.212;2023-02-28T14:53:25;4.90;;;4.40;;
19257;SDS011;9763;48.780;9.212;2023-02-28T14:56:54;4.67;;;4.17;;
19257;SDS011;9763;48.780;9.212;2023-02-28T15:00:20;4.70;;;3.87;;
19257;SDS011;9763;48.780;9.212;2023-02-28T15:03:48;3.50;;;3.20;;
19257;SDS011;9763;48.780;9.212;2023-02-28T15:07:23;4.13;;;3.73;;
19257;SDS011;9763;48.780;9.212;2023-02-28T15:10:51;3.50;;;3.20;;
19257;SDS011;9763;48.780;9.212;2023-02-28T15:14:20;3.73;;;3.33;;
19257;SDS011;9763;48.780;9.212;2023-02-28T15:17:45;3.67;;;3.13;;
19257;SDS011;9763;48.780;9.212;2023-02-28T15:21:13;4.30;;;3.90;;
19257;SDS011;9763;48.780;9.212;2023-02-28T15:24:41;4.67;;;4.23;;
19257;SDS011;9763;48.780;9.212;2023-02-28T15:28:11;4.53;;;4.07;;
19257;SDS011;9763;48.780;9.212;2023-02-28T15:31:44;4.47;;;4.07;;
19257;SDS011;9763;48.780;9.212;2023-02-28T15:35:20;4.20;;;3.80;;
19257;SDS011;9763;48.780;9.212;2023-02-28T15:38:52;4.33;;;3.73;;
19257;SDS011;9763;48.780;9.212;2023-02-28T15:42:20;4.97;;;4.40;;
19257;SDS011;9763;48.780;9.212;2023-02-28T15:45:47;5.40;;;4.13;;
19257;SDS011;9763;48.780;9.212;2023-02-28T15:49:16;4.93;;;4.53;;
19257;SDS011;9763;48.780;9.212;2023-02-28T15:52:44;4.23;;;3.70;;
19257;SDS011;9763;48.780;9.212;2023-02-28T15:56:14;4.80;;;4.40;;
19257;SDS011;9763;48.780;9.212;2023-02-28T15:59:49;4.83;;;3.57;;
19257;SDS011;9763;48.780;9.212;2023-02-28T16:03:23;3.37;;;2.80;;
19257;SDS011;9763;48.780;9.212;2023-02-28T16:07:03;3.57;;;3.27;;
19257;SDS011;9763;48.780;9.212;2023-02-28T16:10:28;2.87;;;2.67;;
19257;SDS011;9763;48.780;9.212;2023-02-28T16:13:52;4.20;;;3.80;;
19257;SDS011;9763;48.780;9.212;2023-02-28T16:17:18;4.03;;;3.73;;
19257;SDS011;9763;48.780;9.212;2023-02-28T16:20:45;3.90;;;3.50;;
19257;SDS011;9763;48.780;9.212;2023-02-28T16:24:10;5.50;;;4.50;;
19257;SDS011;9763;48.780;9.212;2023-02-28T16:27:35;5.53;;;4.93;;
19257;SDS011;9763;48.780;9.212;2023-02-28T16:31:00;5.67;;;5.07;;
19257;SDS011;9763;48.780;9.212;2023-02-28T16:34:27;5.67;;;5.03;;
19257;SDS011;9763;48.780;9.212;2023-02-28T16:37:51;5.60;;;5.00;;
19257;SDS011;9763;48.780;9.212;2023-02-28T16:41:17;5.63;;;5.10;;
19257;SDS011;9763;48.780;9.212;2023-02-28T16:44:44;5.70;;;5.20;;
19257;SDS011;9763;48.780;9.212;2023-02-28T16:48:10;4.70;;;4.17;;
19257;SDS011;9763;48.780;9.212;2023-02-28T16:51:38;4.87;;;4.37;;
19257;SDS011;9763;48.780;9.212;2023-02-28T16:55:01;4.43;;;4.03;;
19257;SDS011;9763;48.780;9.212;2023-02-28T16:58:26;4.87;;;4.30;;
19257;SDS011;9763;48.780;9.212;2023-02-28T17:01:51;6.37;;;4.00;;
19257;SDS011;9763;48.780;9.212;2023-02-28T17:05:15;4.60;;;4.20;;
19257;SDS011;9763;48.780;9.212;2023-02-28T17:08:40;5.17;;;4.67;;
19257;SDS011;9763;48.780;9.212;2023-02-28T17:12:03;4.87;;;4.37;;
19257;SDS011;9763;48.780;9.212;2023-02-28T17:15:30;5.33;;;4.83;;
19257;SDS011;9763;48.780;9.212;2023-02-28T17:18:54;5.13;;;4.00;;
19257;SDS011;9763;48.780;9.212;2023-02-28T17:22:22;5.07;;;3.70;;
19257;SDS011;9763;48.780;9.212;2023-02-28T17:25:47;5.00;;;4.50;;
19257;SDS011;9763;48.780;9.212;2023-02-28T17:29:20;4.60;;;4.20;;
19257;SDS011;9763;48.780;9.212;2023-02-28T17:32:47;3.77;;;3.40;;
19257;SDS011;9763;48.780;9.212;2023-02-28T17:36:12;4.90;;;3.83;;
19257;SDS011;9763;48.780;9.212;2023-02-28T17:39:38;4.27;;;3.87;;
19257;SDS011;9763;48.780;9.212;2023-02-28T17:43:02;3.87;;;3.47;;
19257;SDS011;9763;48.780;9.212;2023-02-28T17:46:25;4.60;;;4.20;;
19257;SDS011;9763;48.780;9.212;2023-02-28T17:49:52;3.77;;;3.40;;
19257;SDS011;9763;48.780;9.212;2023-02-28T17:53:15;4.37;;;3.83;;
19257;SDS011;9763;48.780;9.212;2023-02-28T17:56:39;5.37;;;4.87;;
19257;SDS011;9763;48.780;9.212;2023-02-28T18:00:05;4.60;;;4.20;;
19257;SDS011;9763;48.780;9.212;2023-02-28T18:03:35;3.20;;;2.73;;
19257;SDS011;9763;48.780;9.212;2023-02-28T18:07:00;5.30;;;4.80;;
19257;SDS011;9763;48.780;9.212;2023-02-28T18:10:24;6.30;;;5.67;;
19257;SDS011;9763;48.780;9.212;2023-02-28T18:13:49;5.50;;;4.80;;
19257;SDS011;9763;48.780;9.212;2023-02-28T18:17:16;4.70;;;4.20;;
19257;SDS011;9763;48.780;9.212;2023-02-28T18:20:40;5.13;;;3.80;;
19257;SDS011;9763;48.780;9.212;2023-02-28T18:24:05;5.43;;;4.20;;
19257;SDS011;9763;48.780;9.212;2023-02-28T18:27:29;4.10;;;3.80;;
19257;SDS011;9763;48.780;9.212;2023-02-28T18:30:52;4.50;;;3.93;;
19257;SDS011;9763;48.780;9.212;2023-02-28T18:34:16;4.53;;;4.13;;
19257;SDS011;9763;48.780;9.212;2023-02-28T18:37:41;5.37;;;4.60;;
19257;SDS011;9763;48.780;9.212;2023-02-28T18:41:06;5.70;;;5.03;;
19257;SDS011;9763;48.780;9.212;2023-02-28T18:44:30;5.07;;;4.60;;
19257;SDS011;9763;48.780;9.212;2023-02-28T18:47:53;6.17;;;5.00;;
19257;SDS011;9763;48.780;9.212;2023-02-28T18:51:18;5.90;;;5.17;;
19257;SDS011;9763;48.780;9.212;2023-02-28T18:54:48;5.13;;;4.63;;
19257;SDS011;9763;48.780;9.212;2023-02-28T18:58:13;6.03;;;5.43;;
19257;SDS011;9763;48.780;9.212;2023-02-28T19:01:37;5.03;;;4.63;;
19257;SDS011;9763;48.780;9.212;2023-02-28T19:05:01;5.73;;;5.23;;
19257;SDS011;9763;48.780;9.212;2023-02-28T19:08:26;7.23;;;4.83;;
19257;SDS011;9763;48.780;9.212;2023-02-28T19:11:50;6.00;;;5.40;;
19257;SDS011;9763;48.780;9.212;2023-02-28T19:15:15;5.97;;;5.30;;
19257;SDS011;9763;48.780;9.212;2023-02-28T19:18:39;6.07;;;5.23;;
19257;SDS011;9763;48.780;9.212;2023-02-28T19:22:04;7.50;;;5.63;;
19257;SDS011;9763;48.780;9.212;2023-02-28T19:25:28;4.50;;;4.07;;
19257;SDS011;9763;48.780;9.212;2023-02-28T19:28:52;6.10;;;5.50;;
19257;SDS011;9763;48.780;9.212;2023-02-28T19:32:17;6.53;;;5.83;;
19257;SDS011;9763;48.780;9.212;2023-02-28T19:35:43;8.97;;;7.20;;
19257;SDS011;9763;48.780;9.212;2023-02-28T19:39:07;9.43;;;7.20;;
19257;SDS011;9763;48.780;9.212;2023-02-28T19:42:30;6.77;;;6.07;;
19257;SDS011;9763;48.780;9.212;2023-02-28T19:45:56;7.40;;;6.63;;
19257;SDS011;9763;48.780;9.212;2023-02-28T19:49:22;7.53;;;6.77;;
19257;SDS011;9763;48.780;9.212;2023-02-28T19:52:47;7.77;;;6.97;;
19257;SDS011;9763;48.780;9.212;2023-02-28T19:56:11;7.20;;;6.33;;
19257;SDS011;9763;48.780;9.212;2023-02-28T19:59:34;8.33;;;7.53;;
19257;SDS011;9763;48.780;9.212;2023-02-28T20:03:00;7.10;;;6.40;;
19257;SDS011;9763;48.780;9.212;2023-02-28T20:06:25;10.00;;;6.87;;
19257;SDS011;9763;48.780;9.212;2023-02-28T20:09:50;10.43;;;6.53;;
19257;SDS011;9763;48.780;9.212;2023-02-28T20:13:13;8.20;;;7.03;;
19257;SDS011;9763;48.780;9.212;2023-02-28T20:16:39;8.63;;;7.77;;
19257;SDS011;9763;48.780;9.212;2023-02-28T20:20:04;9.20;;;7.60;;
19257;SDS011;9763;48.780;9.212;2023-02-28T20:23:33;8.50;;;7.37;;
19257;SDS011;9763;48.780;9.212;2023-02-28T20:26:57;7.60;;;6.80;;
19257;SDS011;9763;48.780;9.212;2023-02-28T20:30:21;8.73;;;7.70;;
19257;SDS011;9763;48.780;9.212;2023-02-28T20:33:46;8.83;;;7.30;;
19257;SDS011;9763;48.780;9.212;2023-02-28T20:37:11;9.07;;;7.80;;
19257;SDS011;9763;48.780;9.212;2023-02-28T20:40:36;9.40;;;8.23;;
19257;SDS011;9763;48.780;9.212;2023-02-28T20:44:00;9.03;;;8.10;;
19257;SDS011;9763;48.780;9.212;2023-02-28T20:47:24;12.33;;;9.07;;
19257;SDS011;9763;48.780;9.212;2023-02-28T20:50:48;11.83;;;8.90;;
19257;SDS011;9763;48.780;9.212;2023-02-28T20:54:12;11.80;;;8.97;;
19257;SDS011;9763;48.780;9.212;2023-02-28T20:57:38;9.57;;;8.60;;
19257;SDS011;9763;48.780;9.212;2023-02-28T21:01:03;9.60;;;8.53;;
19257;SDS011;9763;48.780;9.212;2023-02-28T21:04:33;8.50;;;7.63;;
19257;SDS011;9763;48.780;9.212;2023-02-28T21:07:57;8.53;;;7.47;;
19257;SDS011;9763;48.780;9.212;2023-02-28T21:11:21;8.23;;;7.43;;
19257;SDS011;9763;48.780;9.212;2023-02-28T21:14:48;10.47;;;7.87;;
19257;SDS011;9763;48.780;9.212;2023-02-28T21:18:12;6.37;;;5.73;;
19257;SDS011;9763;48.780;9.212;2023-02-28T21:21:36;10.17;;;9.07;;
19257;SDS011;9763;48.780;9.212;2023-02-28T21:25:05;8.67;;;7.20;;
19257;SDS011;9763;48.780;9.212;2023-02-28T21:28:29;11.37;;;8.87;;
19257;SDS011;9763;48.780;9.212;2023-02-28T21:31:54;9.03;;;7.30;;
19257;SDS011;9763;48.780;9.212;2023-02-28T21:35:18;7.33;;;6.60;;